createdAt,value
2024-02-16T00:01:06.005Z,48.30
2024-02-16T00:03:34.344Z,61.90
2024-02-16T00:06:02.163Z,69.20
2024-02-16T00:08:29.860Z,68.50
2024-02-16T00:10:57.587Z,69.60
2024-02-16T00:13:25.301Z,59.20
2024-02-16T00:15:52.970Z,47.90
2024-02-16T00:18:20.717Z,54.90
2024-02-16T00:20:48.598Z,57.00
2024-02-16T00:23:16.584Z,51.30
2024-02-16T00:25:45.051Z,73.00
2024-02-16T00:28:12.783Z,48.90
2024-02-16T00:30:40.507Z,56.10
2024-02-16T00:33:08.915Z,65.70
2024-02-16T00:35:36.627Z,78.00
2024-02-16T00:38:04.495Z,54.00
2024-02-16T00:40:33.802Z,59.10
2024-02-16T00:43:03.101Z,56.80
2024-02-16T00:45:30.907Z,45.50
2024-02-16T00:47:59.033Z,66.50
2024-02-16T00:50:27.623Z,43.70
2024-02-16T00:52:55.193Z,50.70
2024-02-16T00:55:22.848Z,44.40
2024-02-16T00:57:50.515Z,48.10
2024-02-16T01:00:20.934Z,42.50
2024-02-16T01:02:48.766Z,66.30
2024-02-16T01:05:19.241Z,58.30
2024-02-16T01:07:47.067Z,56.00
2024-02-16T01:10:14.881Z,79.10
2024-02-16T01:12:42.455Z,64.70
2024-02-16T01:15:11.097Z,70.00
2024-02-16T01:17:40.840Z,62.00
2024-02-16T01:20:12.572Z,70.00
2024-02-16T01:22:41.038Z,71.50
2024-02-16T01:25:09.899Z,77.50
2024-02-16T01:27:37.812Z,59.30
2024-02-16T01:30:06.351Z,61.70
2024-02-16T01:32:34.212Z,61.60
2024-02-16T01:35:02.004Z,84.00
2024-02-16T01:37:29.933Z,64.40
2024-02-16T01:39:57.590Z,73.90
2024-02-16T01:42:25.314Z,59.60
2024-02-16T01:44:52.953Z,60.60
2024-02-16T01:47:20.604Z,68.70
2024-02-16T01:49:48.291Z,59.60
2024-02-16T01:52:15.919Z,60.90
2024-02-16T01:54:43.464Z,70.20
2024-02-16T01:57:12.478Z,67.60
2024-02-16T01:59:41.587Z,58.00
2024-02-16T02:02:09.134Z,46.30
2024-02-16T02:04:37.964Z,44.30
2024-02-16T02:07:15.866Z,39.40
2024-02-16T02:09:43.677Z,55.20
2024-02-16T02:12:11.408Z,61.50
2024-02-16T02:14:39.219Z,56.60
2024-02-16T02:17:07.188Z,56.30
2024-02-16T02:19:35.084Z,42.00
2024-02-16T02:22:02.926Z,54.70
2024-02-16T02:24:30.576Z,49.30
2024-02-16T02:26:58.964Z,29.50
2024-02-16T02:29:26.543Z,56.80
2024-02-16T02:31:54.195Z,44.10
2024-02-16T02:34:22.192Z,61.70
2024-02-16T02:36:50.233Z,56.90
2024-02-16T02:39:17.982Z,33.90
2024-02-16T02:41:45.769Z,45.10
2024-02-16T02:44:13.334Z,36.40
2024-02-16T02:46:40.888Z,47.50
2024-02-16T02:49:09.740Z,41.10
2024-02-16T02:51:37.808Z,50.10
2024-02-16T02:54:05.837Z,46.50
2024-02-16T02:56:33.429Z,46.20
2024-02-16T02:59:01.059Z,54.30
2024-02-16T03:01:29.274Z,43.20
2024-02-16T03:03:57.354Z,49.10
2024-02-16T03:06:25.280Z,39.80
2024-02-16T03:08:53.057Z,43.10
2024-02-16T03:11:20.948Z,51.80
2024-02-16T03:13:49.218Z,41.80
2024-02-16T03:16:16.919Z,38.00
2024-02-16T03:18:44.862Z,49.40
2024-02-16T03:21:18.997Z,44.50
2024-02-16T03:23:46.945Z,44.50
2024-02-16T03:26:15.966Z,64.60
2024-02-16T03:28:48.783Z,49.10
2024-02-16T03:31:20.360Z,60.60
2024-02-16T03:33:48.802Z,64.20
2024-02-16T03:36:16.772Z,68.40
2024-02-16T03:38:48.333Z,37.10
2024-02-16T03:41:16.941Z,46.20
2024-02-16T03:43:44.530Z,53.40
2024-02-16T03:46:12.164Z,47.30
2024-02-16T03:48:40.692Z,68.80
2024-02-16T03:51:08.471Z,62.70
2024-02-16T03:53:36.092Z,48.90
2024-02-16T03:56:03.955Z,36.20
2024-02-16T03:58:32.602Z,52.70
2024-02-16T04:01:00.212Z,46.90
2024-02-16T04:03:28.020Z,55.60
2024-02-16T04:05:55.769Z,51.90
2024-02-16T04:08:23.604Z,45.30
2024-02-16T04:10:51.296Z,47.30
2024-02-16T04:13:18.938Z,41.10
2024-02-16T04:15:46.721Z,43.70
2024-02-16T04:18:14.634Z,50.10
2024-02-16T04:20:42.634Z,41.20
2024-02-16T04:23:10.191Z,56.70
2024-02-16T04:25:37.841Z,54.80
2024-02-16T04:28:06.243Z,89.90
2024-02-16T04:30:33.821Z,79.30
2024-02-16T04:33:02.162Z,52.70
2024-02-16T04:35:29.841Z,54.00
2024-02-16T04:37:57.503Z,57.40
2024-02-16T04:40:25.065Z,55.60
2024-02-16T04:42:52.622Z,53.00
2024-02-16T04:45:21.394Z,51.30
2024-02-16T04:47:49.677Z,49.80
2024-02-16T04:50:17.361Z,43.50
2024-02-16T04:52:45.510Z,56.80
2024-02-16T04:55:13.134Z,51.60
2024-02-16T04:57:40.794Z,44.60
2024-02-16T05:00:10.956Z,50.10
2024-02-16T05:05:07.306Z,76.40
2024-02-16T05:07:37.439Z,49.30
2024-02-16T05:10:09.223Z,64.00
2024-02-16T05:12:36.867Z,52.50
2024-02-16T05:15:07.171Z,101.60
2024-02-16T05:17:34.878Z,72.30
2024-02-16T05:20:02.585Z,68.70
2024-02-16T05:22:30.908Z,91.00
2024-02-16T05:24:58.478Z,81.80
2024-02-16T05:27:26.148Z,82.40
2024-02-16T05:29:53.854Z,85.90
2024-02-16T05:32:21.564Z,105.50
2024-02-16T05:37:16.682Z,148.30
2024-02-16T05:40:08.934Z,109.30
2024-02-16T05:42:37.196Z,64.90
2024-02-16T05:45:07.007Z,64.00
2024-02-16T05:47:36.366Z,64.90
2024-02-16T05:50:04.685Z,63.00
2024-02-16T05:52:32.472Z,53.80
2024-02-16T05:55:00.038Z,69.30
2024-02-16T05:57:27.628Z,53.70
2024-02-16T05:59:57.044Z,57.60
2024-02-16T06:02:27.224Z,56.80
2024-02-16T06:04:55.128Z,59.80
2024-02-16T06:07:22.694Z,59.90
2024-02-16T06:09:50.518Z,56.40
2024-02-16T06:12:18.202Z,48.50
2024-02-16T06:14:45.849Z,52.30
2024-02-16T06:17:15.973Z,56.70
2024-02-16T06:22:11.701Z,45.10
2024-02-16T06:24:39.294Z,42.90
2024-02-16T06:27:07.082Z,41.10
2024-02-16T06:29:35.003Z,37.40
2024-02-16T06:32:03.498Z,35.10
2024-02-16T06:34:32.068Z,39.50
2024-02-16T06:36:59.942Z,42.70
2024-02-16T06:39:27.792Z,37.90
2024-02-16T06:41:55.635Z,41.80
2024-02-16T06:44:24.988Z,50.20
2024-02-16T06:46:52.953Z,47.10
2024-02-16T06:49:20.613Z,52.50
2024-02-16T06:51:48.767Z,51.20
2024-02-16T06:54:16.840Z,50.00
2024-02-16T06:56:45.450Z,52.60
2024-02-16T06:59:13.022Z,52.90
2024-02-16T07:01:42.091Z,38.70
2024-02-16T07:04:10.724Z,34.40
2024-02-16T07:06:39.776Z,29.30
2024-02-16T07:09:07.506Z,28.20
2024-02-16T07:11:36.640Z,29.40
2024-02-16T07:14:05.349Z,27.30
2024-02-16T07:16:33.740Z,26.70
2024-02-16T07:19:01.811Z,28.40
2024-02-16T07:21:29.499Z,28.50
2024-02-16T07:23:57.149Z,26.30
2024-02-16T07:26:24.884Z,28.70
2024-02-16T07:28:52.458Z,26.30
2024-02-16T07:31:20.117Z,37.70
2024-02-16T07:33:49.479Z,35.20
2024-02-16T07:36:33.479Z,34.10
2024-02-16T07:39:01.300Z,37.80
2024-02-16T07:41:29.403Z,49.80
2024-02-16T07:43:57.083Z,44.30
2024-02-16T07:46:25.059Z,44.00
2024-02-16T07:48:53.048Z,40.60
2024-02-16T07:51:20.835Z,41.60
2024-02-16T07:53:48.746Z,44.20
2024-02-16T07:56:16.410Z,40.00
2024-02-16T07:58:46.958Z,51.20
2024-02-16T08:01:17.298Z,45.00
2024-02-16T08:03:45.125Z,48.30
2024-02-16T08:06:13.707Z,37.80
2024-02-16T08:08:41.616Z,42.20
2024-02-16T08:11:09.286Z,40.60
2024-02-16T08:13:37.021Z,33.30
2024-02-16T08:16:08.431Z,36.60
2024-02-16T08:18:36.577Z,33.80
2024-02-16T08:21:04.640Z,37.10
2024-02-16T08:23:32.696Z,31.30
2024-02-16T08:26:00.256Z,33.30
2024-02-16T08:31:20.995Z,32.10
2024-02-16T08:33:49.137Z,30.70
2024-02-16T08:36:22.971Z,36.00
2024-02-16T08:38:50.823Z,30.70
2024-02-16T08:41:18.825Z,35.50
2024-02-16T08:43:46.464Z,36.50
2024-02-16T08:46:14.037Z,33.30
2024-02-16T08:48:41.811Z,33.50
2024-02-16T08:51:09.776Z,35.90
2024-02-16T08:53:37.837Z,39.70
2024-02-16T08:56:10.124Z,38.00
2024-02-16T08:58:37.771Z,41.60
2024-02-16T09:01:06.161Z,44.20
2024-02-16T09:03:38.371Z,38.90
2024-02-16T09:06:06.283Z,36.70
2024-02-16T09:08:36.924Z,37.10
2024-02-16T09:11:06.627Z,36.00
2024-02-16T09:13:41.636Z,46.70
2024-02-16T09:16:09.670Z,39.50
2024-02-16T09:18:39.339Z,43.50
2024-02-16T09:21:07.981Z,39.30
2024-02-16T09:23:50.248Z,58.50
2024-02-16T09:26:18.159Z,41.80
2024-02-16T09:28:45.879Z,39.20
2024-02-16T09:31:16.828Z,38.90
2024-02-16T09:33:44.737Z,40.40
2024-02-16T09:36:12.496Z,35.00
2024-02-16T09:38:40.284Z,37.50
2024-02-16T09:41:08.201Z,41.70
2024-02-16T09:43:36.286Z,33.00
2024-02-16T09:46:04.665Z,35.10
2024-02-16T09:48:33.119Z,34.90
2024-02-16T09:51:01.080Z,34.40
2024-02-16T09:53:29.892Z,37.10
2024-02-16T09:55:58.124Z,35.60
2024-02-16T09:58:25.964Z,37.20
2024-02-16T10:00:58.639Z,42.00
2024-02-16T10:03:30.029Z,32.80
2024-02-16T10:06:08.886Z,37.40
2024-02-16T10:08:47.844Z,39.50
2024-02-16T10:11:16.148Z,41.00
2024-02-16T10:13:43.872Z,36.20
2024-02-16T10:16:26.873Z,35.80
2024-02-16T10:19:00.933Z,33.70
2024-02-16T10:21:29.504Z,36.60
2024-02-16T10:24:09.814Z,40.10
2024-02-16T10:26:41.726Z,41.80
2024-02-16T10:29:10.741Z,39.80
2024-02-16T10:31:38.985Z,43.10
2024-02-16T10:34:08.032Z,43.80
2024-02-16T10:36:40.122Z,36.00
2024-02-16T10:39:09.936Z,38.10
2024-02-16T10:41:39.439Z,37.00
2024-02-16T10:44:07.607Z,45.50
2024-02-16T10:46:35.695Z,42.80
2024-02-16T10:49:08.002Z,47.80
2024-02-16T10:51:45.439Z,44.20
2024-02-16T10:54:15.688Z,43.80
2024-02-16T10:56:43.481Z,42.90
2024-02-16T10:59:11.517Z,45.50
2024-02-16T11:01:39.977Z,44.30
2024-02-16T11:04:27.255Z,39.40
2024-02-16T11:07:04.322Z,38.50
2024-02-16T11:09:40.821Z,40.10
2024-02-16T11:12:13.776Z,42.00
2024-02-16T11:14:42.803Z,41.60
2024-02-16T11:17:14.474Z,42.30
2024-02-16T11:19:46.556Z,50.60
2024-02-16T11:22:19.383Z,46.20
2024-02-16T11:24:48.876Z,57.20
2024-02-16T11:27:21.010Z,56.00
2024-02-16T11:29:50.111Z,54.30
2024-02-16T11:32:19.672Z,57.90
2024-02-16T11:34:47.443Z,53.20
2024-02-16T11:37:18.616Z,57.20
2024-02-16T11:39:48.414Z,55.10
2024-02-16T11:44:56.816Z,59.70
2024-02-16T11:47:30.435Z,55.00
2024-02-16T11:50:04.300Z,68.30
2024-02-16T11:52:33.264Z,63.20
2024-02-16T11:55:02.873Z,65.10
2024-02-16T11:57:31.303Z,66.40
2024-02-16T11:59:59.077Z,64.20
2024-02-16T12:02:26.946Z,63.10
2024-02-16T12:05:03.550Z,63.60
2024-02-16T12:07:33.236Z,57.30
2024-02-16T12:10:02.499Z,60.70
2024-02-16T12:12:30.307Z,57.90
2024-02-16T12:14:58.411Z,57.50
2024-02-16T12:17:26.117Z,54.60
2024-02-16T12:19:54.049Z,53.50
2024-02-16T12:22:22.045Z,57.30
2024-02-16T12:24:51.677Z,51.50
2024-02-16T12:27:19.629Z,53.60
2024-02-16T12:29:47.405Z,48.80
2024-02-16T12:32:20.386Z,47.10
2024-02-16T12:34:48.646Z,51.90
2024-02-16T12:37:16.630Z,50.70
2024-02-16T12:39:44.560Z,52.10
2024-02-16T12:42:14.453Z,54.70
2024-02-16T12:44:42.486Z,59.20
2024-02-16T12:47:10.162Z,62.60
2024-02-16T12:49:37.983Z,58.80
2024-02-16T12:52:05.847Z,64.60
2024-02-16T12:54:34.585Z,53.80
2024-02-16T12:57:02.365Z,58.30
2024-02-16T12:59:30.117Z,61.00
2024-02-16T13:01:57.893Z,57.30
2024-02-16T13:04:25.799Z,52.40
2024-02-16T13:06:54.472Z,54.40
2024-02-16T13:09:22.471Z,52.60
2024-02-16T13:11:55.999Z,49.40
2024-02-16T13:14:23.979Z,43.80
2024-02-16T13:16:51.641Z,54.40
2024-02-16T13:19:19.908Z,43.60
2024-02-16T13:21:48.198Z,48.20
2024-02-16T13:24:16.847Z,48.40
2024-02-16T13:26:45.169Z,43.20
2024-02-16T13:29:12.836Z,43.60
2024-02-16T13:31:42.039Z,46.00
2024-02-16T13:34:10.024Z,51.40
2024-02-16T13:36:37.926Z,52.30
2024-02-16T13:39:06.995Z,46.20
2024-02-16T13:41:34.799Z,43.20
2024-02-16T13:44:02.698Z,39.20
2024-02-16T13:46:30.471Z,35.70
2024-02-16T13:48:58.852Z,37.80
2024-02-16T13:51:26.737Z,38.30
2024-02-16T13:53:54.822Z,39.70
2024-02-16T13:56:22.540Z,36.20
2024-02-16T13:58:50.183Z,35.70
2024-02-16T14:01:17.907Z,33.50
2024-02-16T14:03:45.834Z,31.00
2024-02-16T14:06:13.882Z,29.30
2024-02-16T14:08:42.060Z,29.40
2024-02-16T14:11:10.357Z,34.50
2024-02-16T14:13:38.101Z,41.00
2024-02-16T14:16:06.671Z,33.70
2024-02-16T14:18:35.710Z,28.60
2024-02-16T14:21:04.528Z,26.60
2024-02-16T14:23:32.909Z,26.30
2024-02-16T14:26:00.828Z,23.00
2024-02-16T14:28:28.701Z,21.20
2024-02-16T14:30:56.556Z,19.10
2024-02-16T14:33:32.603Z,23.90
2024-02-16T14:36:03.779Z,22.80
2024-02-16T14:38:32.037Z,27.60
2024-02-16T14:41:05.064Z,37.80
2024-02-16T14:43:35.963Z,37.60
2024-02-16T14:46:06.401Z,34.80
2024-02-16T14:48:34.319Z,39.40
2024-02-16T14:51:02.288Z,43.40
2024-02-16T14:53:34.664Z,34.20
2024-02-16T14:56:04.697Z,42.50
2024-02-16T14:58:32.932Z,40.70
2024-02-16T15:01:00.597Z,38.50
2024-02-16T15:03:31.988Z,41.10
2024-02-16T15:05:59.966Z,34.00
2024-02-16T15:08:28.592Z,46.40
2024-02-16T15:10:56.384Z,47.00
2024-02-16T15:13:26.162Z,41.60
2024-02-16T15:15:54.114Z,38.40
2024-02-16T15:18:22.126Z,38.60
2024-02-16T15:20:51.917Z,31.10
2024-02-16T15:23:21.232Z,36.60
2024-02-16T15:25:48.916Z,33.50
2024-02-16T15:28:16.666Z,35.80
2024-02-16T15:30:44.746Z,38.40
2024-02-16T15:33:12.638Z,39.70
2024-02-16T15:35:40.486Z,31.30
2024-02-16T15:38:08.142Z,31.70
2024-02-16T15:40:35.810Z,33.00
2024-02-16T15:43:04.758Z,28.30
2024-02-16T15:45:33.282Z,30.30
2024-02-16T15:48:01.791Z,28.00
2024-02-16T15:50:31.748Z,28.10
2024-02-16T15:53:00.824Z,27.10
2024-02-16T15:55:28.555Z,31.90
2024-02-16T15:57:56.078Z,26.70
2024-02-16T16:00:23.825Z,28.70
2024-02-16T16:02:51.750Z,31.40
2024-02-16T16:05:19.402Z,32.90
2024-02-16T16:07:47.431Z,35.70
2024-02-16T16:10:18.034Z,41.30
2024-02-16T16:12:45.809Z,29.00
2024-02-16T16:15:13.507Z,26.80
2024-02-16T16:17:41.234Z,35.00
2024-02-16T16:20:10.159Z,28.50
2024-02-16T16:22:37.873Z,32.80
2024-02-16T16:25:06.514Z,33.10
2024-02-16T16:27:34.236Z,31.40
2024-02-16T16:30:02.043Z,28.40
2024-02-16T16:32:29.654Z,32.40
2024-02-16T16:34:57.941Z,34.70
2024-02-16T16:37:25.789Z,28.40
2024-02-16T16:39:53.553Z,28.50
2024-02-16T16:42:21.241Z,29.70
2024-02-16T16:44:51.586Z,31.00
2024-02-16T16:47:19.521Z,30.60
2024-02-16T16:49:47.370Z,28.30
2024-02-16T16:52:15.157Z,26.50
2024-02-16T16:54:43.665Z,23.20
2024-02-16T16:57:11.437Z,27.90
2024-02-16T16:59:39.078Z,28.20
2024-02-16T17:02:07.408Z,39.30
2024-02-16T17:04:35.300Z,26.90
2024-02-16T17:07:03.359Z,28.20
2024-02-16T17:09:31.210Z,29.60
2024-02-16T17:12:04.047Z,28.10
2024-02-16T17:14:33.515Z,26.60
2024-02-16T17:17:04.168Z,25.70
2024-02-16T17:19:32.851Z,225.00
2024-02-16T17:22:00.762Z,41.10
2024-02-16T17:24:31.986Z,31.30
2024-02-16T17:26:59.999Z,42.50
2024-02-16T17:29:27.754Z,28.70
2024-02-16T17:31:55.274Z,30.00
2024-02-16T17:34:23.821Z,29.50
2024-02-16T17:36:51.935Z,26.70
2024-02-16T17:39:23.584Z,31.20
2024-02-16T17:41:51.274Z,32.10
2024-02-16T17:44:18.933Z,31.80
2024-02-16T17:46:46.692Z,31.30
2024-02-16T17:49:15.002Z,33.30
2024-02-16T17:51:42.839Z,31.90
2024-02-16T17:54:11.160Z,33.00
2024-02-16T17:56:38.801Z,31.80
2024-02-16T17:59:06.454Z,30.30
2024-02-16T18:01:34.267Z,29.30
2024-02-16T18:04:02.069Z,35.10
2024-02-16T18:06:30.803Z,58.90
2024-02-16T18:08:58.770Z,43.00
2024-02-16T18:11:26.574Z,32.60
2024-02-16T18:13:54.379Z,29.50
2024-02-16T18:16:25.115Z,37.80
2024-02-16T18:18:52.897Z,33.90
2024-02-16T18:21:20.695Z,44.20
2024-02-16T18:23:49.218Z,30.20
2024-02-16T18:26:17.007Z,36.00
2024-02-16T18:28:46.154Z,31.60
2024-02-16T18:31:14.163Z,35.50
2024-02-16T18:33:42.022Z,33.10
2024-02-16T18:36:09.955Z,36.70
2024-02-16T18:38:38.619Z,31.20
2024-02-16T18:41:06.207Z,34.00
2024-02-16T18:43:33.747Z,32.80
2024-02-16T18:46:01.332Z,30.50
2024-02-16T18:48:29.044Z,26.60
2024-02-16T18:50:56.852Z,28.90
2024-02-16T18:53:25.415Z,31.40
2024-02-16T18:55:54.401Z,28.20
2024-02-16T18:58:22.031Z,28.30
2024-02-16T19:00:50.333Z,28.50
2024-02-16T19:03:18.096Z,27.50
2024-02-16T19:05:46.291Z,25.30
2024-02-16T19:08:14.145Z,26.00
2024-02-16T19:10:41.822Z,27.60
2024-02-16T19:13:09.465Z,29.70
2024-02-16T19:15:37.286Z,27.50
2024-02-16T19:18:05.933Z,32.80
2024-02-16T19:20:34.417Z,27.90
2024-02-16T19:23:02.168Z,26.00
2024-02-16T19:25:29.874Z,30.70
2024-02-16T19:27:58.872Z,33.80
2024-02-16T19:30:26.775Z,27.10
2024-02-16T19:32:54.576Z,30.70
2024-02-16T19:35:23.598Z,31.00
2024-02-16T19:37:51.565Z,35.50
2024-02-16T19:40:19.972Z,29.00
2024-02-16T19:42:48.494Z,30.50
2024-02-16T19:45:25.755Z,30.90
2024-02-16T19:47:59.812Z,29.30
2024-02-16T19:50:27.642Z,36.40
2024-02-16T19:52:55.328Z,33.40
2024-02-16T19:55:23.100Z,29.30
2024-02-16T19:57:51.533Z,33.10
2024-02-16T20:00:21.837Z,28.80
2024-02-16T20:02:49.566Z,33.60
2024-02-16T20:05:19.607Z,33.70
2024-02-16T20:07:47.794Z,33.40
2024-02-16T20:10:16.547Z,33.20
2024-02-16T20:12:44.279Z,29.90
2024-02-16T20:15:12.193Z,33.10
2024-02-16T20:17:40.123Z,28.00
2024-02-16T20:20:09.772Z,33.30
2024-02-16T20:22:37.356Z,28.60
2024-02-16T20:25:07.567Z,33.20
2024-02-16T20:30:03.387Z,31.80
2024-02-16T20:32:32.739Z,29.20
2024-02-16T20:35:04.476Z,31.90
2024-02-16T20:37:34.051Z,31.30
2024-02-16T20:40:02.257Z,33.80
2024-02-16T20:42:29.939Z,32.60
2024-02-16T20:44:57.739Z,29.60
2024-02-16T20:47:26.169Z,30.70
2024-02-16T20:49:53.935Z,34.90
2024-02-16T20:52:22.190Z,31.40
2024-02-16T20:54:49.876Z,33.50
2024-02-16T20:57:17.695Z,27.70
2024-02-16T20:59:45.440Z,31.40
2024-02-16T21:02:14.847Z,34.60
2024-02-16T21:04:43.982Z,30.10
2024-02-16T21:07:12.146Z,31.70
2024-02-16T21:09:40.314Z,30.90
2024-02-16T21:12:09.644Z,29.00
2024-02-16T21:14:37.632Z,28.10
2024-02-16T21:17:05.404Z,26.40
2024-02-16T21:19:34.188Z,34.80
2024-02-16T21:22:02.364Z,31.40
2024-02-16T21:24:30.274Z,31.70
2024-02-16T21:26:57.898Z,32.30
2024-02-16T21:29:25.552Z,33.30
2024-02-16T21:31:53.132Z,32.80
2024-02-16T21:34:21.044Z,31.70
2024-02-16T21:36:54.792Z,32.70
2024-02-16T21:39:22.438Z,34.20
2024-02-16T21:41:50.115Z,35.30
2024-02-16T21:44:17.676Z,39.80
2024-02-16T21:46:49.633Z,31.90
2024-02-16T21:49:17.705Z,35.00
2024-02-16T21:51:45.394Z,36.00
2024-02-16T21:54:13.182Z,36.90
2024-02-16T21:56:40.911Z,37.30
2024-02-16T21:59:08.572Z,35.30
2024-02-16T22:01:36.154Z,33.60
2024-02-16T22:04:04.538Z,34.20
2024-02-16T22:06:32.642Z,34.70
2024-02-16T22:09:00.442Z,40.20
2024-02-16T22:11:28.349Z,32.40
2024-02-16T22:13:56.194Z,38.40
2024-02-16T22:16:23.726Z,36.50
2024-02-16T22:18:52.388Z,36.10
2024-02-16T22:21:24.181Z,47.00
2024-02-16T22:23:59.704Z,41.60
2024-02-16T22:26:27.436Z,45.70
2024-02-16T22:28:55.076Z,38.30
2024-02-16T22:31:27.448Z,35.10
2024-02-16T22:34:00.837Z,36.70
2024-02-16T22:36:30.316Z,36.80
2024-02-16T22:38:58.005Z,40.80
2024-02-16T22:41:25.691Z,40.60
2024-02-16T22:43:53.872Z,38.60
2024-02-16T22:46:21.432Z,37.60
2024-02-16T22:48:50.781Z,39.50
2024-02-16T22:51:18.614Z,43.00
2024-02-16T22:53:46.262Z,40.50
2024-02-16T22:56:13.820Z,41.90
2024-02-16T22:58:41.391Z,44.80
2024-02-16T23:01:11.262Z,48.20
2024-02-16T23:03:39.102Z,42.40
2024-02-16T23:06:08.115Z,48.50
2024-02-16T23:08:36.540Z,50.20
2024-02-16T23:11:04.964Z,42.40
2024-02-16T23:13:32.710Z,46.30
2024-02-16T23:16:00.268Z,48.40
2024-02-16T23:18:28.940Z,46.30
2024-02-16T23:20:56.819Z,45.00
2024-02-16T23:23:24.371Z,40.40
2024-02-16T23:25:51.926Z,40.00
2024-02-16T23:28:19.594Z,50.00
2024-02-16T23:30:47.375Z,48.70
2024-02-16T23:33:15.251Z,44.40
2024-02-16T23:35:43.156Z,44.20
2024-02-16T23:38:12.720Z,47.80
2024-02-16T23:40:41.632Z,50.30
2024-02-16T23:43:13.141Z,42.30
2024-02-16T23:45:40.831Z,43.70
2024-02-16T23:48:08.687Z,46.90
2024-02-16T23:50:36.344Z,44.10
2024-02-16T23:53:04.022Z,39.60
2024-02-16T23:55:31.570Z,51.20
2024-02-16T23:57:59.338Z,48.70
